Terminal Aerodrome Forecast
Issued by NWS Kansas City/Pleasant Hill, MO

Home | Current Version | Previous Version | Text Only | Print | Product List | Glossary On
Versions: 1 2 3 4 5 6 7 8 9 10 11 12 13 14
814
FTUS43 KEAX 151129
TAFMCI
TAF
KMCI 151129Z 1512/1612 30006KT P6SM FEW035 SCT045 OVC060
     FM151700 26008G20KT P6SM FEW250
     FM152300 23010KT P6SM FEW250
     FM160300 21011KT P6SM FEW250 WS020/23040KT=

USA.gov is the U.S. government's official web portal to all federal, state and local government web resources and services.